Time;durP1;ratioP1;P1;durP2;ratioP2;P2;SDS_P1;SDS_P2;PMS_P1;PMS_P2;Temp;Humidity;BMP_temperature;BMP_pressure;BME280_temperature;BME280_humidity;BME280_pressure;Samples;Min_cycle;Max_cycle;Signal;HPM_P1;HPM_P2
2022/04/17 00:00:55;;;;;;;6.85;3.85;;;8.20;87.00;;;;;;5086086;28;20052;-70
2022/04/17 00:03:23;;;;;;;7.15;4.35;;;8.10;87.10;;;;;;5080844;28;20906;-70
2022/04/17 00:05:50;;;;;;;9.35;4.45;;;8.10;87.40;;;;;;5084633;28;20063;-70
2022/04/17 00:08:16;;;;;;;7.32;4.28;;;8.10;87.60;;;;;;5082729;28;20039;-70
2022/04/17 00:10:41;;;;;;;7.47;4.63;;;8.10;87.60;;;;;;5084596;28;20360;-70
2022/04/17 00:13:07;;;;;;;7.38;4.20;;;8.10;87.70;;;;;;5083581;28;20040;-70
2022/04/17 00:15:33;;;;;;;6.72;4.30;;;8.00;87.80;;;;;;5088854;28;20067;-70
2022/04/17 00:17:58;;;;;;;6.65;4.30;;;8.00;88.10;;;;;;5088209;28;20044;-71
2022/04/17 00:20:24;;;;;;;7.57;4.47;;;8.00;88.50;;;;;;5086210;28;20554;-70
2022/04/17 00:22:50;;;;;;;9.93;4.18;;;8.00;88.60;;;;;;5086407;28;20130;-70
2022/04/17 00:25:16;;;;;;;7.32;4.15;;;8.00;88.80;;;;;;5084611;28;20488;-70
2022/04/17 00:27:42;;;;;;;7.15;4.13;;;7.90;88.90;;;;;;5087833;28;20139;-71
2022/04/17 00:30:08;;;;;;;7.07;4.57;;;7.90;89.20;;;;;;5087791;28;20178;-70
2022/04/17 00:32:35;;;;;;;7.78;4.63;;;7.90;89.70;;;;;;5087766;28;20064;-71
2022/04/17 00:35:00;;;;;;;8.15;4.18;;;7.90;90.10;;;;;;5087904;28;20044;-71
2022/04/17 00:37:26;;;;;;;7.85;4.45;;;7.80;90.10;;;;;;5087494;28;20122;-70
2022/04/17 00:39:52;;;;;;;8.38;4.53;;;7.80;90.10;;;;;;5088927;28;20040;-70
2022/04/17 00:42:18;;;;;;;7.45;4.97;;;7.80;90.10;;;;;;5084089;28;20557;-70
2022/04/17 00:44:44;;;;;;;7.25;4.28;;;7.80;90.20;;;;;;5084502;28;20149;-71
2022/04/17 00:47:14;;;;;;;7.15;4.32;;;7.80;90.30;;;;;;5086304;28;20112;-70
2022/04/17 00:49:39;;;;;;;9.05;4.60;;;7.80;90.40;;;;;;5084551;28;20032;-70
2022/04/17 00:52:06;;;;;;;7.45;4.38;;;7.70;90.50;;;;;;5084647;28;20361;-70
2022/04/17 00:54:33;;;;;;;9.30;4.63;;;7.70;90.50;;;;;;5085418;28;20048;-70
2022/04/17 00:56:59;;;;;;;7.22;4.47;;;7.70;90.70;;;;;;5084920;28;20043;-70
2022/04/17 00:59:25;;;;;;;6.80;4.55;;;7.70;90.90;;;;;;5081160;28;20676;-70
2022/04/17 01:01:52;;;;;;;7.18;4.65;;;7.70;91.10;;;;;;5085953;28;20075;-70
2022/04/17 01:04:17;;;;;;;9.07;4.78;;;7.60;91.40;;;;;;5084013;28;20238;-70
2022/04/17 01:06:43;;;;;;;8.73;4.93;;;7.60;91.70;;;;;;5086300;28;20078;-70
2022/04/17 01:09:09;;;;;;;9.10;4.88;;;7.60;92.00;;;;;;5085660;28;21580;-70
2022/04/17 01:11:39;;;;;;;7.72;4.68;;;7.60;92.30;;;;;;5085517;28;20044;-70
2022/04/17 01:14:07;;;;;;;8.20;5.10;;;7.50;92.60;;;;;;5087457;28;20048;-70
2022/04/17 01:16:35;;;;;;;7.53;4.80;;;7.50;92.90;;;;;;5080518;28;20136;-70
2022/04/17 01:19:04;;;;;;;6.75;4.53;;;7.40;93.10;;;;;;5083279;28;20063;-70
2022/04/17 01:21:34;;;;;;;8.20;5.20;;;7.40;93.40;;;;;;5086186;28;20578;-70
2022/04/17 01:26:56;;;;;;;7.87;5.07;;;7.30;94.10;;;;;;5080983;28;20048;-70
2022/04/17 01:29:34;;;;;;;6.45;4.70;;;7.20;94.30;;;;;;5085383;28;20044;-70
2022/04/17 01:32:01;;;;;;;9.27;4.97;;;7.20;94.60;;;;;;5087403;28;20036;-70
2022/04/17 01:34:27;;;;;;;9.57;4.95;;;7.20;94.90;;;;;;5088085;28;20164;-70
2022/04/17 01:36:53;;;;;;;7.38;5.05;;;7.10;95.30;;;;;;5083911;28;20067;-70
2022/04/17 01:39:19;;;;;;;7.65;4.90;;;7.10;95.50;;;;;;5082405;28;20144;-70
2022/04/17 01:41:46;;;;;;;7.97;5.57;;;7.00;95.70;;;;;;5087697;28;20055;-70
2022/04/17 01:44:12;;;;;;;9.48;5.20;;;7.00;96.00;;;;;;5080947;28;20055;-70
2022/04/17 01:46:38;;;;;;;8.32;5.43;;;7.00;96.30;;;;;;5086099;28;20436;-70
2022/04/17 01:49:04;;;;;;;9.90;5.40;;;6.90;96.60;;;;;;5082900;28;20398;-70
2022/04/17 01:51:35;;;;;;;9.25;5.55;;;6.90;96.80;;;;;;5084101;28;20036;-70
2022/04/17 01:54:02;;;;;;;8.13;5.00;;;6.80;96.80;;;;;;5084092;28;20068;-70
2022/04/17 01:56:28;;;;;;;8.65;4.95;;;6.90;96.90;;;;;;5083118;28;20059;-70
2022/04/17 01:58:54;;;;;;;8.15;5.05;;;6.80;96.90;;;;;;5085400;28;20045;-70
2022/04/17 02:01:20;;;;;;;8.02;5.00;;;6.80;97.00;;;;;;5081892;28;20139;-70
2022/04/17 02:03:46;;;;;;;8.10;5.22;;;6.70;97.00;;;;;;5083532;28;20132;-70
2022/04/17 02:06:11;;;;;;;10.18;5.65;;;6.70;97.00;;;;;;5083902;28;20135;-70
2022/04/17 02:08:37;;;;;;;7.97;5.15;;;6.70;97.20;;;;;;5082339;28;20063;-70
2022/04/17 02:11:02;;;;;;;9.93;5.47;;;6.70;97.60;;;;;;5085368;28;20048;-70
2022/04/17 02:13:29;;;;;;;10.07;5.18;;;6.60;97.40;;;;;;5083371;28;20071;-70
2022/04/17 02:15:55;;;;;;;9.20;5.70;;;6.60;97.50;;;;;;5083127;28;20051;-70
2022/04/17 02:18:21;;;;;;;9.70;5.78;;;6.60;97.70;;;;;;5082752;28;20032;-70
2022/04/17 02:20:47;;;;;;;8.23;5.63;;;6.50;97.90;;;;;;5082907;28;20505;-70
2022/04/17 02:23:13;;;;;;;10.10;5.97;;;6.50;98.20;;;;;;5085966;28;20036;-69
2022/04/17 02:25:39;;;;;;;9.10;6.18;;;6.50;98.40;;;;;;5080929;28;20059;-69
2022/04/17 02:28:04;;;;;;;8.40;5.47;;;6.50;98.50;;;;;;5084163;28;20036;-69
2022/04/17 02:30:30;;;;;;;10.82;6.20;;;6.40;98.60;;;;;;5083469;28;20036;-68
2022/04/17 02:32:56;;;;;;;8.98;6.07;;;6.40;98.80;;;;;;5086838;28;20064;-69
2022/04/17 02:35:21;;;;;;;10.00;6.22;;;6.40;98.90;;;;;;5085250;28;20388;-69
2022/04/17 02:37:47;;;;;;;8.32;5.72;;;6.40;99.00;;;;;;5084244;28;20332;-68
2022/04/17 02:40:12;;;;;;;10.73;6.00;;;6.40;99.10;;;;;;5080789;28;20048;-68
2022/04/17 02:42:38;;;;;;;9.23;5.80;;;6.40;99.10;;;;;;5065739;28;20055;-69
2022/04/17 02:45:04;;;;;;;10.00;5.68;;;6.40;98.90;;;;;;5082846;28;20442;-69
2022/04/17 02:48:03;;;;;;;9.90;6.00;;;6.40;99.00;;;;;;5066302;28;20040;-69
2022/04/17 02:50:23;;;;;;;9.20;5.88;;;6.30;99.10;;;;;;5081959;28;20121;-69
2022/04/17 02:52:48;;;;;;;8.77;5.55;;;6.30;99.20;;;;;;5084068;28;20054;-69
2022/04/17 02:55:14;;;;;;;10.10;6.38;;;6.30;99.30;;;;;;5078091;28;20044;-69
2022/04/17 02:57:39;;;;;;;10.73;6.00;;;6.30;99.40;;;;;;5085458;28;20070;-69
2022/04/17 03:00:08;;;;;;;10.60;6.13;;;6.20;99.60;;;;;;5082921;28;20063;-69
2022/04/17 03:05:37;;;;;;;9.13;5.88;;;6.20;99.90;;;;;;5086287;28;20296;-69
2022/04/17 03:08:11;;;;;;;9.10;6.20;;;6.10;99.90;;;;;;5082350;28;20149;-69
2022/04/17 03:10:38;;;;;;;10.27;6.20;;;6.10;99.90;;;;;;5081630;28;20119;-70
2022/04/17 03:13:05;;;;;;;9.98;6.10;;;6.00;99.90;;;;;;5085394;28;20105;-68
2022/04/17 03:15:31;;;;;;;9.75;6.00;;;6.00;99.90;;;;;;5085357;28;20078;-69
2022/04/17 03:17:58;;;;;;;9.15;5.90;;;6.00;99.90;;;;;;5082859;28;20082;-69
2022/04/17 03:20:25;;;;;;;10.15;6.00;;;5.90;99.90;;;;;;5084420;28;20388;-69
2022/04/17 03:22:50;;;;;;;9.40;5.78;;;5.90;99.90;;;;;;5085758;28;20051;-69
2022/04/17 03:25:16;;;;;;;9.23;5.85;;;5.90;99.90;;;;;;5085701;28;20100;-68
2022/04/17 03:27:45;;;;;;;9.40;6.32;;;5.80;99.90;;;;;;5081325;28;20129;-69
2022/04/17 03:30:10;;;;;;;10.82;6.57;;;5.70;99.90;;;;;;5083422;28;20040;-69
2022/04/17 03:32:36;;;;;;;8.77;6.03;;;5.70;99.90;;;;;;5083080;28;20035;-69
2022/04/17 03:35:02;;;;;;;9.10;6.10;;;5.70;99.90;;;;;;5084398;28;20052;-68
2022/04/17 03:37:27;;;;;;;8.68;5.82;;;5.60;99.90;;;;;;5083702;28;20059;-68
2022/04/17 03:39:53;;;;;;;10.98;6.40;;;5.60;99.90;;;;;;5082051;28;20147;-69
2022/04/17 03:42:21;;;;;;;11.48;6.45;;;5.60;99.90;;;;;;5082952;28;20040;-69
2022/04/17 03:44:47;;;;;;;9.57;6.28;;;5.50;99.90;;;;;;5080043;28;20152;-69
2022/04/17 03:47:13;;;;;;;9.23;6.22;;;5.50;99.90;;;;;;5083288;28;20077;-68
2022/04/17 03:49:38;;;;;;;10.30;6.38;;;5.50;99.90;;;;;;5087240;28;20379;-69
2022/04/17 03:52:04;;;;;;;9.85;6.70;;;5.50;99.90;;;;;;5088916;28;20079;-68
2022/04/17 03:54:31;;;;;;;8.73;5.97;;;5.50;99.90;;;;;;5087867;28;20044;-69
2022/04/17 03:56:56;;;;;;;9.77;5.95;;;5.40;99.90;;;;;;5087776;28;20044;-69
2022/04/17 03:59:22;;;;;;;10.93;6.25;;;5.40;99.90;;;;;;5088248;28;20050;-69
2022/04/17 04:01:48;;;;;;;9.57;6.25;;;5.40;99.90;;;;;;5087932;28;20200;-69
2022/04/17 04:04:14;;;;;;;9.93;6.40;;;5.40;99.90;;;;;;5085095;28;20090;-69
2022/04/17 04:06:41;;;;;;;9.38;6.35;;;5.40;99.90;;;;;;5085950;28;20051;-69
2022/04/17 04:09:07;;;;;;;10.25;7.05;;;5.30;99.90;;;;;;5088710;28;20055;-69
2022/04/17 04:11:33;;;;;;;9.23;6.22;;;5.40;99.90;;;;;;5087925;28;20032;-69
2022/04/17 04:13:58;;;;;;;9.38;5.93;;;5.30;99.90;;;;;;5087610;28;20071;-69
2022/04/17 04:16:24;;;;;;;9.40;6.38;;;5.20;99.90;;;;;;5087746;28;20448;-69
2022/04/17 04:18:49;;;;;;;10.25;6.38;;;5.20;99.90;;;;;;5087473;28;20433;-69
2022/04/17 04:21:15;;;;;;;9.25;6.07;;;5.20;99.90;;;;;;5086244;28;20078;-68
2022/04/17 04:23:41;;;;;;;9.98;6.13;;;5.20;99.90;;;;;;5088568;28;20037;-68
2022/04/17 04:26:07;;;;;;;10.15;6.00;;;5.10;99.90;;;;;;5086872;28;20135;-69
2022/04/17 04:28:34;;;;;;;10.25;6.10;;;5.10;99.90;;;;;;5084696;28;20039;-69
2022/04/17 04:31:00;;;;;;;9.60;6.45;;;5.10;99.90;;;;;;5086902;28;20079;-69
2022/04/17 04:33:26;;;;;;;10.82;6.65;;;5.00;99.90;;;;;;5086226;28;20127;-70
2022/04/17 04:35:51;;;;;;;8.75;6.03;;;5.00;99.90;;;;;;5088425;28;20122;-69
2022/04/17 04:38:17;;;;;;;9.45;6.20;;;5.00;99.90;;;;;;5086276;28;20039;-69
2022/04/17 04:40:43;;;;;;;10.75;6.68;;;5.00;99.90;;;;;;5085555;28;20040;-69
2022/04/17 04:43:09;;;;;;;9.63;6.07;;;5.00;99.90;;;;;;5084219;28;20175;-69
2022/04/17 04:51:03;;;;;;;10.30;6.68;;;5.00;99.90;;;;;;5079953;28;20044;-69
2022/04/17 04:53:28;;;;;;;11.32;6.00;;;5.00;99.90;;;;;;5083280;28;20048;-69
2022/04/17 04:55:54;;;;;;;10.00;7.00;;;5.00;99.90;;;;;;5079600;28;20101;-69
2022/04/17 04:58:20;;;;;;;10.73;6.82;;;4.90;99.90;;;;;;5081123;28;20099;-69
2022/04/17 05:00:46;;;;;;;9.73;6.18;;;4.90;99.90;;;;;;5083140;28;20491;-69
2022/04/17 05:03:12;;;;;;;11.02;6.45;;;5.00;99.90;;;;;;5082413;28;20040;-69
2022/04/17 05:05:37;;;;;;;11.48;6.18;;;5.00;99.90;;;;;;5082235;28;20047;-69
2022/04/17 05:08:03;;;;;;;11.00;7.05;;;5.10;99.90;;;;;;5078063;28;20059;-69
2022/04/17 05:10:29;;;;;;;13.70;8.20;;;6.10;99.90;;;;;;5079202;28;20486;-69
2022/04/17 05:12:54;;;;;;;10.52;7.30;;;7.30;99.90;;;;;;5079952;28;20540;-68
2022/04/17 05:15:21;;;;;;;11.05;7.28;;;8.10;98.20;;;;;;5083608;28;20385;-69
2022/04/17 05:17:47;;;;;;;11.20;6.82;;;8.50;96.70;;;;;;5082577;28;20052;-69
2022/04/17 05:20:15;;;;;;;11.50;7.03;;;8.70;96.10;;;;;;5083026;28;20046;-68
2022/04/17 05:22:40;;;;;;;8.65;6.35;;;8.50;96.40;;;;;;5083758;28;20141;-68
2022/04/17 05:25:06;;;;;;;10.65;6.43;;;8.30;96.70;;;;;;5081936;28;20441;-68
2022/04/17 05:27:32;;;;;;;9.57;6.20;;;8.10;97.30;;;;;;5082336;28;20477;-68
2022/04/17 05:29:58;;;;;;;8.90;6.57;;;7.90;97.80;;;;;;5078303;28;20394;-68
2022/04/17 05:32:24;;;;;;;10.50;7.10;;;7.80;98.10;;;;;;5081637;28;20055;-68
2022/04/17 05:34:50;;;;;;;9.18;6.40;;;7.70;98.50;;;;;;5086157;28;20109;-69
2022/04/17 05:37:16;;;;;;;9.50;6.18;;;7.70;98.60;;;;;;5085521;28;20601;-69
2022/04/17 05:39:41;;;;;;;10.40;6.55;;;7.70;98.80;;;;;;5086012;28;20040;-68
2022/04/17 05:42:08;;;;;;;8.88;5.65;;;7.70;98.90;;;;;;5084464;28;20085;-68
2022/04/17 05:44:35;;;;;;;11.10;6.80;;;7.70;98.70;;;;;;5084494;28;20037;-69
2022/04/17 05:47:01;;;;;;;10.52;6.78;;;7.70;98.60;;;;;;5084342;28;20050;-68
2022/04/17 05:49:27;;;;;;;10.38;6.63;;;7.70;98.50;;;;;;5082988;28;20384;-69
2022/04/17 05:51:55;;;;;;;10.43;6.50;;;7.70;98.50;;;;;;5082714;28;20534;-69
2022/04/17 05:54:21;;;;;;;10.88;7.00;;;7.70;98.50;;;;;;5082872;28;20047;-69
2022/04/17 05:56:46;;;;;;;10.43;6.32;;;7.60;98.50;;;;;;5088530;28;20432;-69
2022/04/17 05:59:12;;;;;;;10.25;6.72;;;7.60;98.50;;;;;;5083759;28;20040;-68
2022/04/17 06:01:40;;;;;;;11.05;6.65;;;7.60;98.60;;;;;;5085356;28;20488;-69
2022/04/17 06:04:05;;;;;;;11.07;6.90;;;7.60;98.80;;;;;;5078657;28;20052;-69
2022/04/17 06:06:31;;;;;;;10.57;5.90;;;7.60;98.60;;;;;;5087724;28;20564;-69
2022/04/17 06:08:57;;;;;;;11.88;7.07;;;7.60;98.60;;;;;;5087358;28;20131;-69
2022/04/17 06:11:23;;;;;;;10.88;6.82;;;7.60;98.50;;;;;;5084860;28;20040;-69
2022/04/17 06:13:49;;;;;;;10.02;6.63;;;7.60;98.70;;;;;;5085881;28;20032;-69
2022/04/17 06:16:14;;;;;;;9.32;6.53;;;7.60;98.60;;;;;;5087067;28;20495;-69
2022/04/17 06:18:40;;;;;;;11.65;6.55;;;7.70;98.80;;;;;;5086595;28;20058;-69
2022/04/17 06:21:06;;;;;;;12.20;6.65;;;7.70;98.80;;;;;;5085886;28;20048;-68
2022/04/17 06:23:31;;;;;;;11.35;6.88;;;7.80;98.80;;;;;;5089111;28;20095;-68
2022/04/17 06:25:59;;;;;;;11.13;6.80;;;7.90;98.90;;;;;;5087606;28;20132;-69
2022/04/17 06:28:24;;;;;;;11.40;7.20;;;7.90;99.00;;;;;;5087407;28;20121;-69
2022/04/17 06:30:50;;;;;;;11.90;7.20;;;8.00;99.00;;;;;;5084217;28;20059;-69
2022/04/17 06:33:15;;;;;;;10.23;6.05;;;8.00;99.10;;;;;;5086491;28;20039;-68
2022/04/17 06:35:41;;;;;;;10.88;7.03;;;8.10;99.00;;;;;;5084148;28;20459;-68
2022/04/17 06:38:10;;;;;;;11.13;7.32;;;8.20;98.90;;;;;;5085983;28;20431;-68
2022/04/17 06:40:36;;;;;;;11.13;7.00;;;8.30;99.00;;;;;;5086159;28;20044;-68
2022/04/17 06:43:05;;;;;;;11.07;7.03;;;8.40;98.90;;;;;;5082467;28;20138;-67
2022/04/17 06:45:33;;;;;;;13.40;7.10;;;8.40;98.80;;;;;;5079967;28;20040;-69
2022/04/17 06:48:11;;;;;;;9.20;6.55;;;8.50;98.50;;;;;;5083957;28;20040;-69
2022/04/17 06:50:36;;;;;;;8.65;6.32;;;8.60;98.40;;;;;;5086388;28;20093;-69
2022/04/17 06:53:10;;;;;;;10.00;6.65;;;8.70;98.30;;;;;;5081614;28;20040;-69
2022/04/17 06:55:35;;;;;;;10.57;6.75;;;8.80;98.00;;;;;;5079667;28;21858;-69
2022/04/17 06:58:01;;;;;;;10.70;7.00;;;8.90;97.60;;;;;;5085269;28;20047;-71
2022/04/17 07:00:27;;;;;;;10.40;6.78;;;8.90;97.40;;;;;;5084066;28;20055;-70
2022/04/17 07:02:52;;;;;;;9.95;6.88;;;9.00;97.30;;;;;;5084857;28;20032;-70
2022/04/17 07:05:18;;;;;;;10.80;6.60;;;9.10;97.00;;;;;;5086285;28;20047;-70
2022/04/17 07:07:44;;;;;;;9.73;6.10;;;9.10;96.90;;;;;;5087006;28;20089;-71
2022/04/17 07:10:10;;;;;;;9.45;6.22;;;9.20;96.80;;;;;;5087467;28;20067;-71
2022/04/17 07:12:36;;;;;;;9.82;5.95;;;9.20;96.60;;;;;;5084908;28;20052;-70
2022/04/17 07:15:06;;;;;;;10.27;6.78;;;9.30;96.40;;;;;;5088080;28;20049;-70
2022/04/17 07:17:35;;;;;;;9.65;6.40;;;9.40;96.40;;;;;;5088817;28;20061;-70
2022/04/17 07:20:01;;;;;;;9.48;5.97;;;9.50;96.30;;;;;;5087877;28;20106;-72
2022/04/17 07:22:26;;;;;;;10.23;6.43;;;9.50;96.30;;;;;;5084245;28;20040;-69
2022/04/17 07:24:54;;;;;;;9.68;6.40;;;9.60;96.40;;;;;;5092183;28;20079;-69
2022/04/17 07:27:20;;;;;;;8.95;6.13;;;9.70;96.00;;;;;;5090988;28;20089;-71
2022/04/17 07:29:46;;;;;;;9.63;6.10;;;9.80;95.20;;;;;;5089428;28;20119;-71
2022/04/17 07:32:12;;;;;;;9.88;6.68;;;9.90;94.70;;;;;;5088550;28;20080;-70
2022/04/17 07:34:38;;;;;;;9.73;6.47;;;10.00;94.80;;;;;;5090957;28;20068;-70
2022/04/17 07:37:04;;;;;;;9.95;6.60;;;10.10;94.00;;;;;;5086247;28;20064;-70
2022/04/17 07:39:29;;;;;;;12.85;6.43;;;10.20;94.10;;;;;;5085250;28;20055;-70
2022/04/17 07:41:55;;;;;;;9.15;5.50;;;10.30;93.90;;;;;;5085432;28;20040;-71
2022/04/17 07:44:20;;;;;;;9.65;5.80;;;10.40;93.70;;;;;;5091781;28;20032;-70
2022/04/17 07:46:46;;;;;;;10.73;6.22;;;10.50;92.90;;;;;;5091477;28;20040;-69
2022/04/17 07:49:12;;;;;;;8.02;5.20;;;10.60;92.40;;;;;;5089849;28;20054;-69
2022/04/17 07:51:37;;;;;;;8.00;4.95;;;10.70;92.10;;;;;;5091431;28;20032;-69
2022/04/17 07:54:03;;;;;;;8.85;5.35;;;10.80;91.70;;;;;;5090944;28;20070;-68
2022/04/17 07:56:29;;;;;;;8.18;4.78;;;10.90;90.50;;;;;;5087135;28;20090;-68
2022/04/17 07:58:55;;;;;;;9.07;5.00;;;10.90;90.10;;;;;;5079661;28;20121;-68
2022/04/17 08:01:21;;;;;;;7.45;4.68;;;11.00;89.70;;;;;;5091300;28;20139;-69
2022/04/17 08:03:47;;;;;;;7.80;4.95;;;11.10;86.80;;;;;;5085293;28;20044;-69
2022/04/17 08:06:16;;;;;;;8.13;4.60;;;11.20;86.60;;;;;;5089661;28;20059;-69
2022/04/17 08:08:42;;;;;;;8.80;4.75;;;11.30;86.30;;;;;;5088372;28;20060;-70
2022/04/17 08:11:08;;;;;;;7.32;4.95;;;11.40;84.40;;;;;;5088577;28;20066;-70
2022/04/17 08:13:35;;;;;;;7.68;4.40;;;11.40;82.40;;;;;;5090812;28;20036;-70
2022/04/17 08:16:02;;;;;;;7.13;4.43;;;11.50;82.40;;;;;;5087007;28;20040;-70
2022/04/17 08:18:28;;;;;;;7.05;4.68;;;11.60;82.00;;;;;;5087860;28;20032;-71
2022/04/17 08:20:54;;;;;;;8.10;4.60;;;11.70;80.70;;;;;;5086244;28;20040;-69
2022/04/17 08:23:20;;;;;;;7.10;4.43;;;11.70;79.90;;;;;;5088196;28;20432;-69
2022/04/17 08:25:46;;;;;;;9.68;4.53;;;11.80;81.00;;;;;;5089491;28;20044;-69
2022/04/17 08:28:12;;;;;;;7.25;4.72;;;11.90;82.20;;;;;;5089085;28;20055;-70
2022/04/17 08:30:38;;;;;;;7.32;4.80;;;12.10;82.50;;;;;;5088825;28;20039;-70
2022/04/17 08:33:05;;;;;;;7.25;4.65;;;12.10;78.90;;;;;;5083028;28;20102;-70
2022/04/17 08:35:31;;;;;;;7.82;4.82;;;12.20;77.40;;;;;;5081201;28;20073;-69
2022/04/17 08:38:03;;;;;;;7.15;4.35;;;12.10;76.10;;;;;;5082591;28;20123;-67
2022/04/17 08:40:29;;;;;;;6.88;4.60;;;12.20;76.10;;;;;;5086243;28;20050;-68
2022/04/17 08:42:56;;;;;;;7.55;4.78;;;12.20;76.20;;;;;;5085412;28;20119;-69
2022/04/17 08:45:23;;;;;;;6.85;4.45;;;12.30;77.60;;;;;;5089784;28;20151;-68
2022/04/17 08:47:50;;;;;;;8.20;4.47;;;12.50;79.00;;;;;;5088259;28;20051;-70
2022/04/17 08:50:18;;;;;;;7.53;4.10;;;12.50;77.30;;;;;;5085688;28;20044;-68
2022/04/17 08:52:48;;;;;;;8.18;4.53;;;12.60;75.30;;;;;;5090812;28;20093;-68
2022/04/17 08:55:15;;;;;;;7.88;4.60;;;12.60;74.30;;;;;;5088512;28;20142;-68
2022/04/17 08:57:40;;;;;;;8.02;3.97;;;12.70;74.30;;;;;;5089145;28;20074;-68
2022/04/17 09:00:10;;;;;;;7.50;4.50;;;12.80;73.70;;;;;;5083214;28;20102;-68
2022/04/17 09:02:36;;;;;;;9.15;4.28;;;12.80;73.70;;;;;;5090871;28;20043;-71
2022/04/17 09:05:06;;;;;;;6.15;4.07;;;12.90;72.70;;;;;;5088447;28;20400;-70
2022/04/17 09:07:44;;;;;;;7.95;4.20;;;12.90;72.00;;;;;;5088761;28;20040;-68
2022/04/17 09:10:09;;;;;;;7.70;4.05;;;13.00;71.80;;;;;;5084918;28;20051;-69
2022/04/17 09:12:35;;;;;;;5.93;3.65;;;13.10;72.40;;;;;;5089118;28;20040;-69
2022/04/17 09:15:01;;;;;;;6.50;4.07;;;13.10;71.30;;;;;;5088320;28;20046;-70
2022/04/17 09:17:33;;;;;;;8.93;4.20;;;13.20;71.30;;;;;;5088880;28;20040;-69
2022/04/17 09:20:00;;;;;;;6.90;4.03;;;13.20;70.40;;;;;;5089462;28;20089;-69
2022/04/17 09:22:45;;;;;;;7.05;4.00;;;13.30;70.80;;;;;;5087870;28;20739;-69
2022/04/17 09:25:12;;;;;;;7.68;4.00;;;13.40;70.30;;;;;;5089503;28;20345;-68
2022/04/17 09:27:41;;;;;;;7.35;4.10;;;13.40;69.70;;;;;;5069205;28;20119;-68
2022/04/17 09:30:31;;;;;;;7.43;4.18;;;13.50;69.80;;;;;;5088596;28;20168;-68
2022/04/17 09:32:58;;;;;;;6.80;3.83;;;13.50;67.60;;;;;;5076344;28;20048;-69
2022/04/17 09:35:24;;;;;;;8.10;4.32;;;13.60;69.30;;;;;;5085171;28;20101;-71
2022/04/17 09:37:54;;;;;;;7.13;4.00;;;13.70;68.50;;;;;;5052223;28;20041;-69
2022/04/17 09:40:20;;;;;;;6.38;4.25;;;13.70;68.50;;;;;;5085631;28;20178;-71
2022/04/17 09:42:48;;;;;;;8.95;4.68;;;13.80;67.90;;;;;;5085739;28;20067;-70
2022/04/17 09:45:14;;;;;;;7.32;4.25;;;13.90;68.10;;;;;;5087393;28;20057;-70
2022/04/17 09:47:39;;;;;;;7.45;4.40;;;13.90;69.40;;;;;;5077995;28;20041;-70
2022/04/17 09:50:08;;;;;;;8.00;4.63;;;14.00;69.00;;;;;;5071838;28;20039;-71
2022/04/17 09:52:39;;;;;;;8.02;4.07;;;14.10;68.10;;;;;;5071269;28;20044;-70
2022/04/17 09:55:05;;;;;;;7.90;4.40;;;14.10;68.40;;;;;;5079343;28;20044;-70
2022/04/17 09:57:39;;;;;;;6.10;4.05;;;14.20;68.70;;;;;;5080492;28;20123;-70
2022/04/17 10:00:18;;;;;;;7.35;4.28;;;14.30;68.80;;;;;;5082401;28;20039;-70
2022/04/17 10:02:46;;;;;;;8.30;4.32;;;14.40;68.20;;;;;;5083198;28;20550;-71
2022/04/17 10:05:15;;;;;;;8.73;4.25;;;14.50;68.70;;;;;;5071586;28;20771;-71
2022/04/17 10:07:42;;;;;;;7.15;4.40;;;14.50;67.70;;;;;;5081988;28;20032;-71
2022/04/17 10:10:09;;;;;;;7.03;3.58;;;14.60;65.20;;;;;;5076549;28;20119;-70
2022/04/17 10:12:35;;;;;;;6.65;3.95;;;14.60;64.60;;;;;;5076096;28;20036;-70
2022/04/17 10:15:04;;;;;;;5.63;3.60;;;14.60;64.00;;;;;;5073591;28;20120;-71
2022/04/17 10:17:31;;;;;;;6.18;3.58;;;14.70;62.70;;;;;;5080787;28;20036;-70
2022/04/17 10:20:02;;;;;;;7.10;4.45;;;14.70;63.90;;;;;;5071601;28;20048;-71
2022/04/17 10:22:32;;;;;;;6.93;4.07;;;14.80;64.50;;;;;;5077247;28;20047;-72
2022/04/17 10:24:59;;;;;;;7.18;4.13;;;14.80;62.80;;;;;;5079039;28;20051;-70
2022/04/17 10:27:28;;;;;;;7.80;4.25;;;14.90;64.50;;;;;;5080535;28;20036;-70
2022/04/17 10:30:07;;;;;;;6.90;4.20;;;15.00;66.80;;;;;;5075456;28;20381;-71
2022/04/17 10:32:33;;;;;;;8.40;4.13;;;15.10;67.20;;;;;;5081380;28;20054;-70
2022/04/17 10:35:17;;;;;;;6.57;4.13;;;15.30;65.90;;;;;;5077063;28;20048;-71
2022/04/17 10:38:16;;;;;;;6.90;3.60;;;15.30;65.90;;;;;;5077853;28;20173;-71
2022/04/17 10:41:06;;;;;;;7.95;3.88;;;15.40;65.10;;;;;;5075732;28;20048;-72
2022/04/17 10:43:58;;;;;;;8.35;4.40;;;15.40;63.20;;;;;;5081952;28;20064;-71
2022/04/17 10:46:24;;;;;;;6.85;3.85;;;15.40;60.60;;;;;;5077156;28;20078;-72
2022/04/17 10:48:57;;;;;;;6.38;4.38;;;15.50;61.60;;;;;;5075009;28;20036;-72
2022/04/17 10:51:30;;;;;;;5.80;3.95;;;15.50;60.70;;;;;;5076095;28;20041;-72
2022/04/17 10:54:03;;;;;;;6.25;3.55;;;15.60;60.60;;;;;;5083499;28;20095;-72
2022/04/17 10:56:33;;;;;;;6.18;3.70;;;15.70;59.70;;;;;;5063520;28;20051;-70
2022/04/17 10:59:00;;;;;;;6.13;3.70;;;15.70;59.60;;;;;;5080102;28;20040;-70
2022/04/17 11:01:41;;;;;;;7.45;4.90;;;15.80;59.30;;;;;;5079022;28;20032;-70
2022/04/17 11:04:35;;;;;;;6.57;4.00;;;15.80;58.10;;;;;;5078800;28;20059;-70
2022/04/17 11:07:06;;;;;;;8.35;4.28;;;15.90;58.40;;;;;;5080110;28;20047;-70
2022/04/17 11:09:39;;;;;;;6.60;4.13;;;15.90;58.30;;;;;;5086558;28;20036;-69
2022/04/17 11:12:07;;;;;;;5.50;3.60;;;15.90;57.90;;;;;;5082601;28;20040;-70
2022/04/17 11:14:32;;;;;;;7.60;4.32;;;16.00;57.40;;;;;;5079816;28;20820;-70
2022/04/17 11:17:08;;;;;;;6.57;3.63;;;15.90;55.80;;;;;;5081179;28;20040;-70
2022/04/17 11:19:37;;;;;;;5.90;3.80;;;16.00;56.60;;;;;;5085291;28;20089;-70
2022/04/17 11:22:05;;;;;;;6.43;3.95;;;15.90;56.30;;;;;;5086620;28;20052;-68
2022/04/17 11:24:53;;;;;;;7.07;4.03;;;16.00;57.50;;;;;;5083501;28;20048;-70
2022/04/17 11:27:49;;;;;;;7.03;3.95;;;16.00;57.70;;;;;;5086619;28;20119;-70
2022/04/17 11:30:18;;;;;;;6.22;3.80;;;16.10;57.10;;;;;;5081927;28;20040;-70
2022/04/17 11:32:46;;;;;;;6.40;3.72;;;16.10;57.20;;;;;;5086976;28;20120;-71
2022/04/17 11:35:14;;;;;;;6.20;3.55;;;16.10;56.60;;;;;;5087009;28;20040;-70
2022/04/17 11:37:40;;;;;;;6.22;3.90;;;16.20;55.70;;;;;;5088977;28;20047;-70
2022/04/17 11:40:15;;;;;;;5.88;3.80;;;16.10;53.20;;;;;;5084424;28;20056;-70
2022/04/17 11:42:46;;;;;;;5.95;3.90;;;16.20;54.00;;;;;;5083764;28;20089;-71
2022/04/17 11:45:13;;;;;;;7.35;3.65;;;16.30;55.20;;;;;;5081107;28;20096;-70
2022/04/17 11:47:47;;;;;;;5.70;3.13;;;16.30;54.50;;;;;;5086626;28;20077;-71
2022/04/17 11:50:20;;;;;;;5.70;3.00;;;16.30;53.10;;;;;;5086643;28;20048;-71
2022/04/17 11:52:52;;;;;;;5.30;2.97;;;16.40;52.50;;;;;;5088887;28;20086;-71
2022/04/17 11:55:26;;;;;;;4.75;2.97;;;16.40;52.10;;;;;;5098886;28;20100;-71
2022/04/17 11:57:51;;;;;;;6.75;2.83;;;16.40;51.30;;;;;;5086180;28;20051;-71
2022/04/17 12:00:17;;;;;;;5.57;2.75;;;16.50;50.50;;;;;;5086734;28;20468;-71
2022/04/17 12:02:42;;;;;;;6.38;3.22;;;16.50;49.50;;;;;;5086487;28;20047;-71
2022/04/17 12:05:10;;;;;;;5.25;2.83;;;16.40;50.00;;;;;;5083475;28;20586;-71
2022/04/17 12:07:41;;;;;;;5.80;3.30;;;16.60;50.50;;;;;;5085052;28;20089;-71
2022/04/17 12:10:11;;;;;;;5.35;3.03;;;16.60;50.50;;;;;;5088992;28;20056;-71
2022/04/17 12:12:45;;;;;;;5.82;3.15;;;16.70;50.60;;;;;;5089616;28;20154;-71
2022/04/17 12:15:12;;;;;;;5.38;3.28;;;16.70;49.80;;;;;;5089327;28;20055;-71
2022/04/17 12:17:39;;;;;;;6.53;3.40;;;16.80;49.90;;;;;;5081085;28;20488;-71
2022/04/17 12:20:13;;;;;;;5.22;2.85;;;16.80;49.50;;;;;;5090028;28;20072;-71
2022/04/17 12:22:41;;;;;;;6.15;3.50;;;16.80;49.90;;;;;;5090028;28;20055;-70
2022/04/17 12:25:20;;;;;;;5.85;3.60;;;16.90;50.50;;;;;;5088596;28;20044;-71
2022/04/17 12:27:50;;;;;;;6.55;3.28;;;17.00;50.40;;;;;;5090262;28;20554;-71
2022/04/17 12:30:21;;;;;;;7.35;3.75;;;17.00;51.10;;;;;;5090211;28;20492;-69
2022/04/17 12:32:48;;;;;;;6.30;3.58;;;17.00;50.60;;;;;;5086858;28;20036;-68
2022/04/17 12:35:26;;;;;;;5.85;3.60;;;17.00;51.40;;;;;;5087233;28;20071;-69
2022/04/17 12:38:05;;;;;;;6.57;3.50;;;17.10;51.00;;;;;;5073653;28;20490;-69
2022/04/17 12:40:37;;;;;;;5.60;3.00;;;17.20;50.50;;;;;;5103769;28;20476;-68
2022/04/17 12:43:19;;;;;;;5.45;3.00;;;17.10;48.00;;;;;;5087069;28;20082;-70
2022/04/17 12:45:56;;;;;;;5.60;2.78;;;17.20;48.50;;;;;;5088826;28;20051;-69
2022/04/17 12:48:34;;;;;;;5.20;2.88;;;17.20;47.80;;;;;;5088286;28;20068;-69
2022/04/17 12:51:04;;;;;;;4.82;2.70;;;17.30;46.80;;;;;;5090094;28;20395;-69
2022/04/17 12:53:35;;;;;;;6.20;2.97;;;17.30;46.70;;;;;;5087518;28;20376;-70
2022/04/17 12:56:01;;;;;;;5.82;2.90;;;17.30;47.10;;;;;;5083788;28;20344;-68
2022/04/17 12:58:27;;;;;;;6.13;2.60;;;17.30;47.10;;;;;;5079502;28;20059;-69
2022/04/17 13:00:57;;;;;;;5.00;2.72;;;17.40;47.10;;;;;;5070802;28;20074;-68
2022/04/17 13:03:33;;;;;;;4.70;2.63;;;17.40;47.00;;;;;;5088364;28;20056;-68
2022/04/17 13:05:59;;;;;;;4.95;2.80;;;17.50;46.30;;;;;;5087293;28;20082;-68